sensor_id;sensor_type;location;lat;lon;timestamp;P1;durP1;ratioP1;P2;durP2;ratioP2
51495;SDS011;37572;52.094;4.870;2023-08-01T00:00:40;9.75;;;3.53;;
51495;SDS011;37572;52.094;4.870;2023-08-01T00:03:05;8.57;;;2.83;;
51495;SDS011;37572;52.094;4.870;2023-08-01T00:05:31;7.57;;;2.95;;
51495;SDS011;37572;52.094;4.870;2023-08-01T00:07:56;6.55;;;3.00;;
51495;SDS011;37572;52.094;4.870;2023-08-01T00:10:21;7.25;;;3.00;;
51495;SDS011;37572;52.094;4.870;2023-08-01T00:12:47;7.63;;;3.13;;
51495;SDS011;37572;52.094;4.870;2023-08-01T00:15:12;10.13;;;3.00;;
51495;SDS011;37572;52.094;4.870;2023-08-01T00:17:37;6.80;;;3.25;;
51495;SDS011;37572;52.094;4.870;2023-08-01T00:20:03;7.63;;;3.20;;
51495;SDS011;37572;52.094;4.870;2023-08-01T00:22:29;10.30;;;3.75;;
51495;SDS011;37572;52.094;4.870;2023-08-01T00:24:55;10.70;;;4.13;;
51495;SDS011;37572;52.094;4.870;2023-08-01T00:27:20;7.53;;;3.00;;
51495;SDS011;37572;52.094;4.870;2023-08-01T00:29:45;6.32;;;3.13;;
51495;SDS011;37572;52.094;4.870;2023-08-01T00:32:11;11.47;;;3.23;;
51495;SDS011;37572;52.094;4.870;2023-08-01T00:34:36;8.37;;;3.03;;
51495;SDS011;37572;52.094;4.870;2023-08-01T00:37:01;8.85;;;3.15;;
51495;SDS011;37572;52.094;4.870;2023-08-01T00:39:27;7.55;;;3.33;;
51495;SDS011;37572;52.094;4.870;2023-08-01T00:41:52;5.97;;;2.83;;
51495;SDS011;37572;52.094;4.870;2023-08-01T00:44:17;7.50;;;3.15;;
51495;SDS011;37572;52.094;4.870;2023-08-01T00:46:43;8.30;;;3.27;;
51495;SDS011;37572;52.094;4.870;2023-08-01T00:49:09;10.38;;;3.13;;
51495;SDS011;37572;52.094;4.870;2023-08-01T00:51:34;8.95;;;3.25;;
51495;SDS011;37572;52.094;4.870;2023-08-01T00:54:00;5.47;;;2.72;;
51495;SDS011;37572;52.094;4.870;2023-08-01T00:56:25;7.37;;;2.87;;
51495;SDS011;37572;52.094;4.870;2023-08-01T00:58:51;10.10;;;3.38;;
51495;SDS011;37572;52.094;4.870;2023-08-01T01:01:16;8.50;;;3.27;;
51495;SDS011;37572;52.094;4.870;2023-08-01T01:03:41;9.13;;;3.60;;
51495;SDS011;37572;52.094;4.870;2023-08-01T01:06:14;10.55;;;3.15;;
51495;SDS011;37572;52.094;4.870;2023-08-01T01:08:44;8.85;;;3.35;;
51495;SDS011;37572;52.094;4.870;2023-08-01T01:11:10;9.82;;;3.28;;
51495;SDS011;37572;52.094;4.870;2023-08-01T01:13:35;9.97;;;3.67;;
51495;SDS011;37572;52.094;4.870;2023-08-01T01:16:01;10.63;;;3.67;;
51495;SDS011;37572;52.094;4.870;2023-08-01T01:18:26;6.85;;;3.28;;
51495;SDS011;37572;52.094;4.870;2023-08-01T01:20:51;11.10;;;4.57;;
51495;SDS011;37572;52.094;4.870;2023-08-01T01:23:17;10.63;;;3.80;;
51495;SDS011;37572;52.094;4.870;2023-08-01T01:25:44;10.13;;;3.58;;
51495;SDS011;37572;52.094;4.870;2023-08-01T01:28:12;10.35;;;3.72;;
51495;SDS011;37572;52.094;4.870;2023-08-01T01:30:39;10.20;;;4.13;;
51495;SDS011;37572;52.094;4.870;2023-08-01T01:33:06;9.90;;;4.13;;
51495;SDS011;37572;52.094;4.870;2023-08-01T01:35:35;8.95;;;4.22;;
51495;SDS011;37572;52.094;4.870;2023-08-01T01:38:01;13.30;;;4.70;;
51495;SDS011;37572;52.094;4.870;2023-08-01T01:40:30;10.38;;;3.72;;
51495;SDS011;37572;52.094;4.870;2023-08-01T01:42:56;9.77;;;3.88;;
51495;SDS011;37572;52.094;4.870;2023-08-01T01:45:21;11.98;;;4.15;;
51495;SDS011;37572;52.094;4.870;2023-08-01T01:47:46;10.35;;;4.20;;
51495;SDS011;37572;52.094;4.870;2023-08-01T01:50:12;10.63;;;3.50;;
51495;SDS011;37572;52.094;4.870;2023-08-01T01:52:37;11.60;;;3.47;;
51495;SDS011;37572;52.094;4.870;2023-08-01T01:55:02;13.18;;;4.13;;
51495;SDS011;37572;52.094;4.870;2023-08-01T01:57:28;10.57;;;4.20;;
51495;SDS011;37572;52.094;4.870;2023-08-01T01:59:53;12.73;;;4.28;;
51495;SDS011;37572;52.094;4.870;2023-08-01T02:02:18;11.77;;;3.80;;
51495;SDS011;37572;52.094;4.870;2023-08-01T02:04:45;9.38;;;3.50;;
51495;SDS011;37572;52.094;4.870;2023-08-01T02:07:12;8.98;;;3.40;;
51495;SDS011;37572;52.094;4.870;2023-08-01T02:09:39;14.85;;;4.55;;
51495;SDS011;37572;52.094;4.870;2023-08-01T02:12:04;10.33;;;4.10;;
51495;SDS011;37572;52.094;4.870;2023-08-01T02:14:30;11.27;;;4.90;;
51495;SDS011;37572;52.094;4.870;2023-08-01T02:16:55;8.27;;;3.87;;
51495;SDS011;37572;52.094;4.870;2023-08-01T02:19:20;8.83;;;3.70;;
51495;SDS011;37572;52.094;4.870;2023-08-01T02:21:46;8.57;;;4.65;;
51495;SDS011;37572;52.094;4.870;2023-08-01T02:24:11;7.47;;;3.43;;
51495;SDS011;37572;52.094;4.870;2023-08-01T02:26:36;10.27;;;4.17;;
51495;SDS011;37572;52.094;4.870;2023-08-01T02:29:01;11.20;;;4.38;;
51495;SDS011;37572;52.094;4.870;2023-08-01T02:31:27;10.15;;;4.07;;
51495;SDS011;37572;52.094;4.870;2023-08-01T02:33:52;10.53;;;4.43;;
51495;SDS011;37572;52.094;4.870;2023-08-01T02:36:17;10.57;;;4.93;;
51495;SDS011;37572;52.094;4.870;2023-08-01T02:38:43;12.60;;;4.82;;
51495;SDS011;37572;52.094;4.870;2023-08-01T02:41:08;14.32;;;4.40;;
51495;SDS011;37572;52.094;4.870;2023-08-01T02:43:33;12.73;;;4.37;;
51495;SDS011;37572;52.094;4.870;2023-08-01T02:46:01;12.68;;;4.80;;
51495;SDS011;37572;52.094;4.870;2023-08-01T02:48:27;13.18;;;4.05;;
51495;SDS011;37572;52.094;4.870;2023-08-01T02:50:52;9.50;;;3.50;;
51495;SDS011;37572;52.094;4.870;2023-08-01T02:53:17;9.73;;;4.10;;
51495;SDS011;37572;52.094;4.870;2023-08-01T02:55:43;9.05;;;3.67;;
51495;SDS011;37572;52.094;4.870;2023-08-01T02:58:11;12.35;;;3.28;;
51495;SDS011;37572;52.094;4.870;2023-08-01T03:00:40;9.27;;;4.13;;
51495;SDS011;37572;52.094;4.870;2023-08-01T03:03:05;9.18;;;3.67;;
51495;SDS011;37572;52.094;4.870;2023-08-01T03:05:31;11.35;;;4.25;;
51495;SDS011;37572;52.094;4.870;2023-08-01T03:07:56;9.55;;;3.60;;
51495;SDS011;37572;52.094;4.870;2023-08-01T03:10:22;8.98;;;4.00;;
51495;SDS011;37572;52.094;4.870;2023-08-01T03:12:47;11.15;;;3.85;;
51495;SDS011;37572;52.094;4.870;2023-08-01T03:15:12;12.27;;;4.63;;
51495;SDS011;37572;52.094;4.870;2023-08-01T03:17:38;13.57;;;4.43;;
51495;SDS011;37572;52.094;4.870;2023-08-01T03:20:03;11.63;;;4.60;;
51495;SDS011;37572;52.094;4.870;2023-08-01T03:22:29;12.57;;;4.75;;
51495;SDS011;37572;52.094;4.870;2023-08-01T03:24:55;13.63;;;4.95;;
51495;SDS011;37572;52.094;4.870;2023-08-01T03:27:20;11.10;;;5.28;;
51495;SDS011;37572;52.094;4.870;2023-08-01T03:29:45;14.07;;;5.23;;
51495;SDS011;37572;52.094;4.870;2023-08-01T03:32:10;10.83;;;4.37;;
51495;SDS011;37572;52.094;4.870;2023-08-01T03:34:36;14.63;;;6.65;;
51495;SDS011;37572;52.094;4.870;2023-08-01T03:37:01;11.45;;;4.75;;
51495;SDS011;37572;52.094;4.870;2023-08-01T03:39:27;12.38;;;4.85;;
51495;SDS011;37572;52.094;4.870;2023-08-01T03:41:52;10.23;;;4.17;;
51495;SDS011;37572;52.094;4.870;2023-08-01T03:44:18;10.37;;;4.97;;
51495;SDS011;37572;52.094;4.870;2023-08-01T03:46:43;12.37;;;4.57;;
51495;SDS011;37572;52.094;4.870;2023-08-01T03:49:08;12.87;;;4.60;;
51495;SDS011;37572;52.094;4.870;2023-08-01T03:51:34;12.65;;;4.85;;
51495;SDS011;37572;52.094;4.870;2023-08-01T03:53:59;13.00;;;5.72;;
51495;SDS011;37572;52.094;4.870;2023-08-01T03:56:25;13.73;;;5.07;;
51495;SDS011;37572;52.094;4.870;2023-08-01T03:58:50;14.13;;;5.23;;
51495;SDS011;37572;52.094;4.870;2023-08-01T04:01:15;10.53;;;3.93;;
51495;SDS011;37572;52.094;4.870;2023-08-01T04:03:40;11.37;;;4.90;;
51495;SDS011;37572;52.094;4.870;2023-08-01T04:06:06;12.10;;;4.82;;
51495;SDS011;37572;52.094;4.870;2023-08-01T04:08:33;16.60;;;5.13;;
51495;SDS011;37572;52.094;4.870;2023-08-01T04:10:58;12.55;;;4.90;;
51495;SDS011;37572;52.094;4.870;2023-08-01T04:13:23;17.00;;;5.67;;
51495;SDS011;37572;52.094;4.870;2023-08-01T04:15:49;13.03;;;4.70;;
51495;SDS011;37572;52.094;4.870;2023-08-01T04:18:14;11.27;;;5.13;;
51495;SDS011;37572;52.094;4.870;2023-08-01T04:20:39;13.47;;;5.27;;
51495;SDS011;37572;52.094;4.870;2023-08-01T04:23:05;12.23;;;4.75;;
51495;SDS011;37572;52.094;4.870;2023-08-01T04:25:30;11.70;;;4.93;;
51495;SDS011;37572;52.094;4.870;2023-08-01T04:27:55;12.43;;;4.30;;
51495;SDS011;37572;52.094;4.870;2023-08-01T04:30:20;13.37;;;4.30;;
51495;SDS011;37572;52.094;4.870;2023-08-01T04:32:46;12.77;;;4.60;;
51495;SDS011;37572;52.094;4.870;2023-08-01T04:35:11;11.57;;;5.10;;
51495;SDS011;37572;52.094;4.870;2023-08-01T04:37:36;13.95;;;4.78;;
51495;SDS011;37572;52.094;4.870;2023-08-01T04:40:02;11.43;;;4.47;;
51495;SDS011;37572;52.094;4.870;2023-08-01T04:42:28;13.65;;;4.30;;
51495;SDS011;37572;52.094;4.870;2023-08-01T04:44:53;15.32;;;4.78;;
51495;SDS011;37572;52.094;4.870;2023-08-01T04:47:20;8.73;;;4.05;;
51495;SDS011;37572;52.094;4.870;2023-08-01T04:49:46;13.45;;;4.43;;
51495;SDS011;37572;52.094;4.870;2023-08-01T04:52:11;11.35;;;4.13;;
51495;SDS011;37572;52.094;4.870;2023-08-01T04:54:37;10.15;;;3.92;;
51495;SDS011;37572;52.094;4.870;2023-08-01T04:57:02;11.30;;;3.93;;
51495;SDS011;37572;52.094;4.870;2023-08-01T04:59:28;9.15;;;3.53;;
51495;SDS011;37572;52.094;4.870;2023-08-01T05:01:53;9.63;;;3.97;;
51495;SDS011;37572;52.094;4.870;2023-08-01T05:04:18;12.07;;;4.00;;
51495;SDS011;37572;52.094;4.870;2023-08-01T05:06:43;10.63;;;3.30;;
51495;SDS011;37572;52.094;4.870;2023-08-01T05:09:09;11.47;;;4.00;;
51495;SDS011;37572;52.094;4.870;2023-08-01T05:11:34;9.85;;;4.00;;
51495;SDS011;37572;52.094;4.870;2023-08-01T05:13:59;8.83;;;3.70;;
51495;SDS011;37572;52.094;4.870;2023-08-01T05:16:25;7.60;;;3.10;;
51495;SDS011;37572;52.094;4.870;2023-08-01T05:18:50;12.10;;;3.45;;
51495;SDS011;37572;52.094;4.870;2023-08-01T05:21:15;9.40;;;3.10;;
51495;SDS011;37572;52.094;4.870;2023-08-01T05:23:41;7.57;;;2.83;;
51495;SDS011;37572;52.094;4.870;2023-08-01T05:26:06;6.87;;;2.40;;
51495;SDS011;37572;52.094;4.870;2023-08-01T05:28:31;10.60;;;3.67;;
51495;SDS011;37572;52.094;4.870;2023-08-01T05:30:56;9.13;;;3.33;;
51495;SDS011;37572;52.094;4.870;2023-08-01T05:33:22;8.52;;;2.78;;
51495;SDS011;37572;52.094;4.870;2023-08-01T05:35:48;7.93;;;3.30;;
51495;SDS011;37572;52.094;4.870;2023-08-01T05:38:14;8.80;;;3.30;;
51495;SDS011;37572;52.094;4.870;2023-08-01T05:40:39;8.85;;;2.75;;
51495;SDS011;37572;52.094;4.870;2023-08-01T05:43:04;10.17;;;3.43;;
51495;SDS011;37572;52.094;4.870;2023-08-01T05:45:30;10.73;;;2.97;;
51495;SDS011;37572;52.094;4.870;2023-08-01T05:47:55;6.10;;;2.57;;
51495;SDS011;37572;52.094;4.870;2023-08-01T05:50:20;8.93;;;2.72;;
51495;SDS011;37572;52.094;4.870;2023-08-01T05:52:46;8.38;;;2.58;;
51495;SDS011;37572;52.094;4.870;2023-08-01T05:55:11;10.37;;;3.00;;
51495;SDS011;37572;52.094;4.870;2023-08-01T05:57:36;7.68;;;2.75;;
51495;SDS011;37572;52.094;4.870;2023-08-01T06:00:02;9.55;;;2.75;;
51495;SDS011;37572;52.094;4.870;2023-08-01T06:02:28;7.13;;;2.70;;
51495;SDS011;37572;52.094;4.870;2023-08-01T06:04:53;8.63;;;3.17;;
51495;SDS011;37572;52.094;4.870;2023-08-01T06:07:18;11.38;;;3.80;;
51495;SDS011;37572;52.094;4.870;2023-08-01T06:09:48;7.78;;;2.17;;
51495;SDS011;37572;52.094;4.870;2023-08-01T06:12:16;11.05;;;2.60;;
51495;SDS011;37572;52.094;4.870;2023-08-01T06:14:42;6.60;;;2.60;;
51495;SDS011;37572;52.094;4.870;2023-08-01T06:17:08;7.60;;;2.53;;
51495;SDS011;37572;52.094;4.870;2023-08-01T06:19:33;7.03;;;2.57;;
51495;SDS011;37572;52.094;4.870;2023-08-01T06:21:58;7.50;;;2.40;;
51495;SDS011;37572;52.094;4.870;2023-08-01T06:24:25;8.32;;;2.63;;
51495;SDS011;37572;52.094;4.870;2023-08-01T06:26:50;8.63;;;2.57;;
51495;SDS011;37572;52.094;4.870;2023-08-01T06:29:15;7.80;;;2.70;;
51495;SDS011;37572;52.094;4.870;2023-08-01T06:31:41;10.23;;;3.00;;
51495;SDS011;37572;52.094;4.870;2023-08-01T06:34:06;10.57;;;2.90;;
51495;SDS011;37572;52.094;4.870;2023-08-01T06:36:31;6.30;;;2.40;;
51495;SDS011;37572;52.094;4.870;2023-08-01T06:38:57;7.50;;;2.30;;
51495;SDS011;37572;52.094;4.870;2023-08-01T06:41:22;5.68;;;2.55;;
51495;SDS011;37572;52.094;4.870;2023-08-01T06:43:48;9.80;;;3.15;;
51495;SDS011;37572;52.094;4.870;2023-08-01T06:46:13;8.20;;;2.43;;
51495;SDS011;37572;52.094;4.870;2023-08-01T06:48:38;8.93;;;3.03;;
51495;SDS011;37572;52.094;4.870;2023-08-01T06:51:04;8.33;;;2.40;;
51495;SDS011;37572;52.094;4.870;2023-08-01T06:53:29;6.90;;;2.45;;
51495;SDS011;37572;52.094;4.870;2023-08-01T06:55:54;7.55;;;2.70;;
51495;SDS011;37572;52.094;4.870;2023-08-01T06:58:20;10.37;;;2.80;;
51495;SDS011;37572;52.094;4.870;2023-08-01T07:00:45;6.07;;;2.30;;
51495;SDS011;37572;52.094;4.870;2023-08-01T07:03:10;7.07;;;2.47;;
51495;SDS011;37572;52.094;4.870;2023-08-01T07:05:35;7.77;;;2.10;;
51495;SDS011;37572;52.094;4.870;2023-08-01T07:08:02;7.63;;;2.30;;
51495;SDS011;37572;52.094;4.870;2023-08-01T07:10:27;7.28;;;2.40;;
51495;SDS011;37572;52.094;4.870;2023-08-01T07:12:52;5.33;;;2.30;;
51495;SDS011;37572;52.094;4.870;2023-08-01T07:15:18;8.50;;;2.87;;
51495;SDS011;37572;52.094;4.870;2023-08-01T07:17:43;7.88;;;2.67;;
51495;SDS011;37572;52.094;4.870;2023-08-01T07:20:08;12.10;;;2.90;;
51495;SDS011;37572;52.094;4.870;2023-08-01T07:22:34;7.43;;;2.63;;
51495;SDS011;37572;52.094;4.870;2023-08-01T07:24:59;9.30;;;2.67;;
51495;SDS011;37572;52.094;4.870;2023-08-01T07:27:25;7.33;;;2.30;;
51495;SDS011;37572;52.094;4.870;2023-08-01T07:29:50;8.32;;;2.40;;
51495;SDS011;37572;52.094;4.870;2023-08-01T07:32:15;7.70;;;2.30;;
51495;SDS011;37572;52.094;4.870;2023-08-01T07:34:40;7.70;;;2.50;;
51495;SDS011;37572;52.094;4.870;2023-08-01T07:37:06;8.10;;;2.37;;
51495;SDS011;37572;52.094;4.870;2023-08-01T07:39:31;6.28;;;1.92;;
51495;SDS011;37572;52.094;4.870;2023-08-01T07:41:59;5.63;;;1.80;;
51495;SDS011;37572;52.094;4.870;2023-08-01T07:44:24;4.73;;;1.90;;
51495;SDS011;37572;52.094;4.870;2023-08-01T07:46:49;6.37;;;1.70;;
51495;SDS011;37572;52.094;4.870;2023-08-01T07:49:15;4.40;;;1.40;;
51495;SDS011;37572;52.094;4.870;2023-08-01T07:51:40;4.82;;;2.05;;
51495;SDS011;37572;52.094;4.870;2023-08-01T07:54:05;5.00;;;1.33;;
51495;SDS011;37572;52.094;4.870;2023-08-01T07:56:30;4.33;;;1.60;;
51495;SDS011;37572;52.094;4.870;2023-08-01T07:58:56;5.17;;;1.60;;
51495;SDS011;37572;52.094;4.870;2023-08-01T08:01:21;4.53;;;1.75;;
51495;SDS011;37572;52.094;4.870;2023-08-01T08:03:47;5.70;;;1.88;;
51495;SDS011;37572;52.094;4.870;2023-08-01T08:06:12;8.87;;;2.13;;
51495;SDS011;37572;52.094;4.870;2023-08-01T08:08:38;6.55;;;2.25;;
51495;SDS011;37572;52.094;4.870;2023-08-01T08:11:03;6.97;;;2.30;;
51495;SDS011;37572;52.094;4.870;2023-08-01T08:13:29;7.10;;;2.00;;
51495;SDS011;37572;52.094;4.870;2023-08-01T08:15:57;5.93;;;1.90;;
51495;SDS011;37572;52.094;4.870;2023-08-01T08:18:23;7.50;;;2.38;;
51495;SDS011;37572;52.094;4.870;2023-08-01T08:20:49;6.25;;;1.80;;
51495;SDS011;37572;52.094;4.870;2023-08-01T08:23:14;5.22;;;1.55;;
51495;SDS011;37572;52.094;4.870;2023-08-01T08:25:40;5.93;;;1.73;;
51495;SDS011;37572;52.094;4.870;2023-08-01T08:28:06;5.65;;;1.90;;
51495;SDS011;37572;52.094;4.870;2023-08-01T08:30:32;7.68;;;2.10;;
51495;SDS011;37572;52.094;4.870;2023-08-01T08:32:58;6.00;;;1.55;;
51495;SDS011;37572;52.094;4.870;2023-08-01T08:35:25;7.03;;;1.90;;
51495;SDS011;37572;52.094;4.870;2023-08-01T08:37:50;5.25;;;1.60;;
51495;SDS011;37572;52.094;4.870;2023-08-01T08:40:15;6.53;;;2.00;;
51495;SDS011;37572;52.094;4.870;2023-08-01T08:42:41;4.68;;;1.52;;
51495;SDS011;37572;52.094;4.870;2023-08-01T08:45:08;5.15;;;1.85;;
51495;SDS011;37572;52.094;4.870;2023-08-01T08:47:38;7.07;;;2.28;;
51495;SDS011;37572;52.094;4.870;2023-08-01T08:50:07;6.00;;;1.80;;
51495;SDS011;37572;52.094;4.870;2023-08-01T08:52:34;7.45;;;2.28;;
51495;SDS011;37572;52.094;4.870;2023-08-01T08:55:01;6.18;;;1.92;;
51495;SDS011;37572;52.094;4.870;2023-08-01T08:57:27;6.65;;;1.98;;
51495;SDS011;37572;52.094;4.870;2023-08-01T08:59:54;4.63;;;1.83;;
51495;SDS011;37572;52.094;4.870;2023-08-01T09:02:20;6.50;;;2.17;;
51495;SDS011;37572;52.094;4.870;2023-08-01T09:04:46;9.60;;;2.45;;
51495;SDS011;37572;52.094;4.870;2023-08-01T09:07:11;9.07;;;2.20;;
51495;SDS011;37572;52.094;4.870;2023-08-01T09:09:40;6.65;;;1.98;;
51495;SDS011;37572;52.094;4.870;2023-08-01T09:12:05;7.30;;;2.70;;
51495;SDS011;37572;52.094;4.870;2023-08-01T09:14:34;6.93;;;2.13;;
51495;SDS011;37572;52.094;4.870;2023-08-01T09:17:09;11.10;;;2.58;;
51495;SDS011;37572;52.094;4.870;2023-08-01T09:19:35;5.82;;;2.08;;
51495;SDS011;37572;52.094;4.870;2023-08-01T09:22:01;7.72;;;2.17;;
51495;SDS011;37572;52.094;4.870;2023-08-01T09:24:26;6.13;;;1.75;;
51495;SDS011;37572;52.094;4.870;2023-08-01T09:26:51;7.53;;;1.73;;
51495;SDS011;37572;52.094;4.870;2023-08-01T09:29:17;5.83;;;1.60;;
51495;SDS011;37572;52.094;4.870;2023-08-01T09:31:43;5.13;;;1.70;;
51495;SDS011;37572;52.094;4.870;2023-08-01T09:34:21;4.75;;;1.80;;
51495;SDS011;37572;52.094;4.870;2023-08-01T09:36:48;6.05;;;1.92;;
51495;SDS011;37572;52.094;4.870;2023-08-01T09:39:18;5.38;;;1.63;;
51495;SDS011;37572;52.094;4.870;2023-08-01T09:41:44;5.40;;;1.63;;
51495;SDS011;37572;52.094;4.870;2023-08-01T09:44:11;6.90;;;1.77;;
51495;SDS011;37572;52.094;4.870;2023-08-01T09:46:37;5.78;;;1.75;;
51495;SDS011;37572;52.094;4.870;2023-08-01T09:49:09;4.05;;;1.40;;
51495;SDS011;37572;52.094;4.870;2023-08-01T09:51:45;6.22;;;1.65;;
51495;SDS011;37572;52.094;4.870;2023-08-01T09:54:12;6.35;;;1.98;;
51495;SDS011;37572;52.094;4.870;2023-08-01T09:56:37;6.50;;;1.93;;
51495;SDS011;37572;52.094;4.870;2023-08-01T09:59:05;6.13;;;1.52;;
51495;SDS011;37572;52.094;4.870;2023-08-01T10:01:30;6.05;;;1.40;;
51495;SDS011;37572;52.094;4.870;2023-08-01T10:03:57;6.95;;;1.70;;
51495;SDS011;37572;52.094;4.870;2023-08-01T10:06:24;6.07;;;1.95;;
51495;SDS011;37572;52.094;4.870;2023-08-01T10:08:53;5.45;;;1.70;;
51495;SDS011;37572;52.094;4.870;2023-08-01T10:11:19;5.10;;;2.10;;
51495;SDS011;37572;52.094;4.870;2023-08-01T10:13:45;7.07;;;1.75;;
51495;SDS011;37572;52.094;4.870;2023-08-01T10:16:11;7.28;;;1.77;;
51495;SDS011;37572;52.094;4.870;2023-08-01T10:18:38;6.03;;;1.98;;
51495;SDS011;37572;52.094;4.870;2023-08-01T10:21:05;6.05;;;2.10;;
51495;SDS011;37572;52.094;4.870;2023-08-01T10:23:35;5.40;;;1.70;;
51495;SDS011;37572;52.094;4.870;2023-08-01T10:26:01;4.53;;;1.80;;
51495;SDS011;37572;52.094;4.870;2023-08-01T10:28:32;6.88;;;1.92;;
51495;SDS011;37572;52.094;4.870;2023-08-01T10:31:08;5.10;;;1.73;;
51495;SDS011;37572;52.094;4.870;2023-08-01T10:33:38;7.35;;;1.65;;
51495;SDS011;37572;52.094;4.870;2023-08-01T10:36:18;6.85;;;1.50;;
51495;SDS011;37572;52.094;4.870;2023-08-01T10:38:48;5.35;;;1.92;;
51495;SDS011;37572;52.094;4.870;2023-08-01T10:41:18;5.07;;;1.83;;
51495;SDS011;37572;52.094;4.870;2023-08-01T10:46:44;7.70;;;2.20;;
51495;SDS011;37572;52.094;4.870;2023-08-01T10:49:40;7.10;;;2.53;;
51495;SDS011;37572;52.094;4.870;2023-08-01T10:52:17;5.68;;;1.75;;
51495;SDS011;37572;52.094;4.870;2023-08-01T10:54:48;5.45;;;1.58;;
51495;SDS011;37572;52.094;4.870;2023-08-01T10:57:27;7.88;;;2.38;;
51495;SDS011;37572;52.094;4.870;2023-08-01T10:59:57;7.07;;;2.20;;
51495;SDS011;37572;52.094;4.870;2023-08-01T11:02:24;6.93;;;2.00;;
51495;SDS011;37572;52.094;4.870;2023-08-01T11:04:57;6.38;;;1.65;;
51495;SDS011;37572;52.094;4.870;2023-08-01T11:07:25;4.57;;;1.83;;
51495;SDS011;37572;52.094;4.870;2023-08-01T11:12:39;4.70;;;1.60;;
51495;SDS011;37572;52.094;4.870;2023-08-01T11:15:06;3.85;;;1.35;;
51495;SDS011;37572;52.094;4.870;2023-08-01T11:17:35;4.70;;;2.10;;
51495;SDS011;37572;52.094;4.870;2023-08-01T11:20:04;5.88;;;1.88;;
51495;SDS011;37572;52.094;4.870;2023-08-01T11:22:32;7.97;;;1.85;;
51495;SDS011;37572;52.094;4.870;2023-08-01T11:24:58;6.10;;;2.00;;
51495;SDS011;37572;52.094;4.870;2023-08-01T11:27:24;7.88;;;2.20;;
51495;SDS011;37572;52.094;4.870;2023-08-01T11:29:50;8.27;;;1.65;;
51495;SDS011;37572;52.094;4.870;2023-08-01T11:32:16;7.63;;;1.80;;
51495;SDS011;37572;52.094;4.870;2023-08-01T11:34:42;7.37;;;2.07;;
51495;SDS011;37572;52.094;4.870;2023-08-01T11:37:09;9.43;;;2.38;;
51495;SDS011;37572;52.094;4.870;2023-08-01T11:39:35;7.10;;;1.60;;
51495;SDS011;37572;52.094;4.870;2023-08-01T11:42:01;5.70;;;1.92;;
51495;SDS011;37572;52.094;4.870;2023-08-01T11:44:26;8.10;;;1.67;;
51495;SDS011;37572;52.094;4.870;2023-08-01T11:46:51;6.87;;;1.80;;
51495;SDS011;37572;52.094;4.870;2023-08-01T11:49:17;7.03;;;2.13;;
51495;SDS011;37572;52.094;4.870;2023-08-01T11:51:43;4.53;;;1.58;;
51495;SDS011;37572;52.094;4.870;2023-08-01T11:54:10;8.15;;;2.55;;
51495;SDS011;37572;52.094;4.870;2023-08-01T11:56:37;7.07;;;1.73;;
51495;SDS011;37572;52.094;4.870;2023-08-01T12:01:46;5.20;;;1.00;;
51495;SDS011;37572;52.094;4.870;2023-08-01T12:04:12;5.85;;;1.52;;
51495;SDS011;37572;52.094;4.870;2023-08-01T12:06:48;6.30;;;1.67;;
51495;SDS011;37572;52.094;4.870;2023-08-01T12:09:14;4.53;;;1.47;;
51495;SDS011;37572;52.094;4.870;2023-08-01T12:11:40;6.43;;;1.50;;
51495;SDS011;37572;52.094;4.870;2023-08-01T12:14:13;6.95;;;1.42;;
51495;SDS011;37572;52.094;4.870;2023-08-01T12:16:40;6.32;;;1.85;;
51495;SDS011;37572;52.094;4.870;2023-08-01T12:19:10;3.22;;;1.58;;
51495;SDS011;37572;52.094;4.870;2023-08-01T12:21:35;4.70;;;1.50;;
51495;SDS011;37572;52.094;4.870;2023-08-01T12:24:01;7.25;;;1.60;;
51495;SDS011;37572;52.094;4.870;2023-08-01T12:26:27;4.22;;;1.60;;
51495;SDS011;37572;52.094;4.870;2023-08-01T12:28:53;4.78;;;1.60;;
51495;SDS011;37572;52.094;4.870;2023-08-01T12:31:20;7.68;;;2.00;;
51495;SDS011;37572;52.094;4.870;2023-08-01T12:33:47;6.95;;;1.80;;
51495;SDS011;37572;52.094;4.870;2023-08-01T12:36:13;7.85;;;2.15;;
51495;SDS011;37572;52.094;4.870;2023-08-01T12:38:39;5.53;;;1.40;;
51495;SDS011;37572;52.094;4.870;2023-08-01T12:41:05;5.72;;;1.48;;
51495;SDS011;37572;52.094;4.870;2023-08-01T12:43:31;5.25;;;1.30;;
51495;SDS011;37572;52.094;4.870;2023-08-01T12:45:56;7.97;;;1.27;;
51495;SDS011;37572;52.094;4.870;2023-08-01T12:48:23;7.82;;;1.83;;
51495;SDS011;37572;52.094;4.870;2023-08-01T12:50:49;7.80;;;1.60;;
51495;SDS011;37572;52.094;4.870;2023-08-01T12:53:14;6.10;;;1.35;;
51495;SDS011;37572;52.094;4.870;2023-08-01T12:55:57;4.07;;;1.15;;
51495;SDS011;37572;52.094;4.870;2023-08-01T12:58:22;5.93;;;1.42;;
51495;SDS011;37572;52.094;4.870;2023-08-01T13:00:48;6.60;;;1.30;;
51495;SDS011;37572;52.094;4.870;2023-08-01T13:03:13;2.93;;;0.80;;
51495;SDS011;37572;52.094;4.870;2023-08-01T13:05:39;5.63;;;1.10;;
51495;SDS011;37572;52.094;4.870;2023-08-01T13:08:06;4.60;;;1.23;;
51495;SDS011;37572;52.094;4.870;2023-08-01T13:10:32;5.53;;;1.08;;
51495;SDS011;37572;52.094;4.870;2023-08-01T13:12:58;5.35;;;1.40;;
51495;SDS011;37572;52.094;4.870;2023-08-01T13:15:24;3.47;;;1.13;;
51495;SDS011;37572;52.094;4.870;2023-08-01T13:17:50;6.03;;;1.80;;
51495;SDS011;37572;52.094;4.870;2023-08-01T13:20:16;4.57;;;1.40;;
51495;SDS011;37572;52.094;4.870;2023-08-01T13:22:42;6.97;;;2.05;;
51495;SDS011;37572;52.094;4.870;2023-08-01T13:25:07;5.40;;;1.30;;
51495;SDS011;37572;52.094;4.870;2023-08-01T13:27:34;7.13;;;1.60;;
51495;SDS011;37572;52.094;4.870;2023-08-01T13:30:00;6.32;;;1.70;;
51495;SDS011;37572;52.094;4.870;2023-08-01T13:32:26;4.57;;;1.50;;
51495;SDS011;37572;52.094;4.870;2023-08-01T13:34:52;7.45;;;1.50;;
51495;SDS011;37572;52.094;4.870;2023-08-01T13:37:17;6.03;;;1.50;;
51495;SDS011;37572;52.094;4.870;2023-08-01T13:39:43;7.57;;;1.70;;
51495;SDS011;37572;52.094;4.870;2023-08-01T13:42:10;3.30;;;1.35;;
51495;SDS011;37572;52.094;4.870;2023-08-01T13:44:36;5.20;;;1.65;;
51495;SDS011;37572;52.094;4.870;2023-08-01T13:47:01;6.00;;;1.53;;
51495;SDS011;37572;52.094;4.870;2023-08-01T13:49:28;4.95;;;1.25;;
51495;SDS011;37572;52.094;4.870;2023-08-01T13:51:54;5.00;;;1.42;;
51495;SDS011;37572;52.094;4.870;2023-08-01T13:54:19;4.75;;;1.73;;
51495;SDS011;37572;52.094;4.870;2023-08-01T13:56:44;4.82;;;1.50;;
51495;SDS011;37572;52.094;4.870;2023-08-01T13:59:10;8.67;;;1.77;;
51495;SDS011;37572;52.094;4.870;2023-08-01T14:01:35;4.32;;;1.25;;
51495;SDS011;37572;52.094;4.870;2023-08-01T14:04:00;5.78;;;1.70;;
51495;SDS011;37572;52.094;4.870;2023-08-01T14:06:26;5.80;;;1.70;;
51495;SDS011;37572;52.094;4.870;2023-08-01T14:08:51;7.05;;;1.35;;
51495;SDS011;37572;52.094;4.870;2023-08-01T14:11:16;8.20;;;1.47;;
51495;SDS011;37572;52.094;4.870;2023-08-01T14:13:42;4.63;;;1.35;;
51495;SDS011;37572;52.094;4.870;2023-08-01T14:16:07;5.17;;;1.17;;
51495;SDS011;37572;52.094;4.870;2023-08-01T14:18:32;6.27;;;2.20;;
51495;SDS011;37572;52.094;4.870;2023-08-01T14:20:58;4.85;;;1.35;;
51495;SDS011;37572;52.094;4.870;2023-08-01T14:23:24;3.27;;;1.17;;
51495;SDS011;37572;52.094;4.870;2023-08-01T14:25:49;4.65;;;1.80;;
51495;SDS011;37572;52.094;4.870;2023-08-01T14:28:14;4.57;;;1.35;;
51495;SDS011;37572;52.094;4.870;2023-08-01T14:30:40;4.60;;;1.40;;
51495;SDS011;37572;52.094;4.870;2023-08-01T14:33:06;4.88;;;1.42;;
51495;SDS011;37572;52.094;4.870;2023-08-01T14:35:33;5.65;;;1.65;;
51495;SDS011;37572;52.094;4.870;2023-08-01T14:37:59;2.60;;;1.00;;
51495;SDS011;37572;52.094;4.870;2023-08-01T14:40:25;6.32;;;1.60;;
51495;SDS011;37572;52.094;4.870;2023-08-01T14:42:50;4.53;;;1.83;;
51495;SDS011;37572;52.094;4.870;2023-08-01T14:45:17;6.40;;;1.77;;